Faust — SLKQ — position and weather

sailwx.info

Track history (hours):
 
Tides and Currents Weather Stations Pressure Air Temp Water Temp Dewpoint Dewpoint Depression Visibility Wind Speed Wind Dir Waves Ship Positions

Faust

Last reported at 2014-Oct-14 08:21 UTC. Time now 2014-Oct-24 09:38 UTC.
Position N 01°14' E 103°25'.
Warning: this ship's position is 10 days out of date.

Length 227.8 m; beam 32.3 m; draft 9.5 m.

Type: Cargo ship. MMSI: 266260000.

Date/timePositionNaut miles runAvg speedWind from/ knotsBaromVisibWave heightAir tempDewpointWater temp
2014-Oct-14 08:21N 01°14' E 103°25'1316.0
2014-Oct-14 07:33N 01°12' E 103°38'8 8.1
2014-Oct-14 06:34N 01°17' E 103°44'1 1.1
2014-Oct-14 05:34N 01°18' E 103°44'0 0.0
2014-Oct-14 04:33N 01°18' E 103°44'0 0.0
2014-Oct-14 03:34N 01°18' E 103°44'0 0.0
2014-Oct-14 02:34N 01°18' E 103°44'0 0.0
2014-Oct-14 01:33N 01°18' E 103°44'0 0.0
2014-Oct-14 00:33N 01°18' E 103°44'0 0.2
2014-Oct-13 23:33N 01°18' E 103°44'7 6.7
2014-Oct-13 22:33N 01°13' E 103°48'1110.8
2014-Oct-13 21:33N 01°15' E 103°59'  
2014-Oct-09 16:27N 23°26' E 117°46'1516.8
2014-Oct-09 15:33N 23°37' E 117°58'1716.7
2014-Oct-09 14:34N 23°48' E 118°11'1616.0
2014-Oct-09 13:33N 23°58' E 118°25'5115.9
2014-Oct-09 10:22N 24°30' E 119°08'37916.6
2014-Oct-08 11:30N 29°51' E 122°56'5917.5
2014-Oct-08 08:08N 30°46' E 123°20'  
Track history (hours):
 
Tides and Currents Weather Stations Pressure Air Temp Water Temp Dewpoint Dewpoint Depression Visibility Wind Speed Wind Dir Waves Ship Positions

Faust

Last reported at 2014-Oct-14 08:21 UTC. Time now 2014-Oct-24 09:38 UTC.
Position N 01°14' E 103°25'.
Warning: this ship's position is 10 days out of date.

Length 227.8 m; beam 32.3 m; draft 9.5 m.

Type: Cargo ship. MMSI: 266260000.

Date/timePositionNaut miles runAvg speedWind from/ knotsBaromVisibWave heightAir tempDewpointWater temp
2014-Oct-14 08:21N 01°14' E 103°25'1316.0
2014-Oct-14 07:33N 01°12' E 103°38'8 8.1
2014-Oct-14 06:34N 01°17' E 103°44'1 1.1
2014-Oct-14 05:34N 01°18' E 103°44'0 0.0
2014-Oct-14 04:33N 01°18' E 103°44'0 0.0
2014-Oct-14 03:34N 01°18' E 103°44'0 0.0
2014-Oct-14 02:34N 01°18' E 103°44'0 0.0
2014-Oct-14 01:33N 01°18' E 103°44'0 0.0
2014-Oct-14 00:33N 01°18' E 103°44'0 0.2
2014-Oct-13 23:33N 01°18' E 103°44'7 6.7
2014-Oct-13 22:33N 01°13' E 103°48'1110.8
2014-Oct-13 21:33N 01°15' E 103°59'  
2014-Oct-09 16:27N 23°26' E 117°46'1516.8
2014-Oct-09 15:33N 23°37' E 117°58'1716.7
2014-Oct-09 14:34N 23°48' E 118°11'1616.0
2014-Oct-09 13:33N 23°58' E 118°25'5115.9
2014-Oct-09 10:22N 24°30' E 119°08'37916.6
2014-Oct-08 11:30N 29°51' E 122°56'5917.5
2014-Oct-08 08:08N 30°46' E 123°20'  

Dump ship's entire track history